Time;durP1;ratioP1;P1;durP2;ratioP2;P2;SDS_P1;SDS_P2;PMS_P1;PMS_P2;Temp;Humidity;BMP_temperature;BMP_pressure;BME280_temperature;BME280_humidity;BME280_pressure;Samples;Min_cycle;Max_cycle;Signal;HPM_P1;HPM_P2
2021/01/06 00:01:04;;;;;;;11.73;6.97;;;2.10;93.80;;;;;;4981651;28;20197;-81
2021/01/06 00:03:31;;;;;;;10.90;7.00;;;2.10;93.90;;;;;;4978271;28;21043;-81
2021/01/06 00:06:01;;;;;;;12.03;8.93;;;2.10;93.90;;;;;;4995231;28;20210;-83
2021/01/06 00:08:28;;;;;;;15.07;10.30;;;2.10;93.90;;;;;;4983542;28;20307;-83
2021/01/06 00:10:57;;;;;;;14.77;9.70;;;2.10;93.90;;;;;;4996266;28;20196;-83
2021/01/06 00:13:26;;;;;;;16.00;9.83;;;2.10;93.90;;;;;;4963843;28;20224;-82
2021/01/06 00:15:55;;;;;;;14.53;9.63;;;2.10;93.90;;;;;;5004483;28;20269;-82
2021/01/06 00:18:25;;;;;;;14.13;9.67;;;2.10;93.90;;;;;;5005000;28;20671;-82
2021/01/06 00:20:53;;;;;;;15.10;10.13;;;2.10;93.90;;;;;;5002596;28;20187;-82
2021/01/06 00:23:26;;;;;;;14.53;9.33;;;2.10;94.00;;;;;;4976208;28;20568;-84
2021/01/06 00:25:54;;;;;;;13.93;9.77;;;2.10;94.00;;;;;;4995143;28;20230;-82
2021/01/06 00:28:22;;;;;;;15.77;10.20;;;2.10;94.00;;;;;;5005306;28;20200;-83
2021/01/06 00:30:52;;;;;;;15.63;10.77;;;2.10;94.00;;;;;;4997161;28;20203;-82
2021/01/06 00:33:22;;;;;;;15.33;9.90;;;2.10;94.00;;;;;;4968743;28;20244;-82
2021/01/06 00:35:53;;;;;;;15.33;9.30;;;2.10;94.00;;;;;;5019363;28;20490;-82
2021/01/06 00:38:25;;;;;;;17.73;11.17;;;2.10;94.00;;;;;;5015678;28;20211;-81
2021/01/06 00:40:53;;;;;;;14.63;10.40;;;2.00;94.00;;;;;;5022066;28;20176;-83
2021/01/06 00:43:23;;;;;;;14.50;9.77;;;2.00;94.00;;;;;;4993062;28;20203;-82
2021/01/06 00:45:51;;;;;;;16.27;10.20;;;2.10;94.00;;;;;;5012410;28;20539;-81
2021/01/06 00:48:19;;;;;;;14.50;9.90;;;2.00;94.00;;;;;;5043090;28;20198;-82
2021/01/06 00:50:46;;;;;;;15.97;9.90;;;2.10;94.00;;;;;;5016721;28;20204;-81
2021/01/06 00:53:17;;;;;;;15.00;9.43;;;2.00;94.00;;;;;;4997620;28;20405;-83
2021/01/06 00:55:45;;;;;;;15.47;9.73;;;2.00;94.00;;;;;;5026445;28;20230;-81
2021/01/06 00:58:12;;;;;;;15.23;10.13;;;2.00;94.00;;;;;;5012817;28;20565;-83
2021/01/06 01:00:40;;;;;;;13.73;9.60;;;2.00;94.00;;;;;;5007857;28;20179;-83
2021/01/06 01:03:07;;;;;;;7.63;5.90;;;2.00;94.00;;;;;;4988051;28;20211;-83
2021/01/06 01:05:36;;;;;;;13.20;8.83;;;2.00;94.00;;;;;;5002042;28;20299;-82
2021/01/06 01:08:06;;;;;;;12.43;9.00;;;2.00;94.00;;;;;;5008045;28;20629;-80
2021/01/06 01:10:36;;;;;;;12.53;9.23;;;2.10;94.00;;;;;;5010206;28;20192;-82
2021/01/06 01:13:09;;;;;;;14.13;9.60;;;2.00;94.00;;;;;;4994337;28;20238;-81
2021/01/06 01:15:38;;;;;;;14.30;9.80;;;2.00;94.00;;;;;;5014718;28;20192;-82
2021/01/06 01:18:08;;;;;;;15.70;10.60;;;1.90;93.90;;;;;;5031274;28;20211;-81
2021/01/06 01:20:36;;;;;;;17.37;9.73;;;2.10;94.00;;;;;;5022419;28;20461;-81
2021/01/06 01:23:03;;;;;;;14.80;9.87;;;2.00;94.00;;;;;;4993444;28;20339;-81
2021/01/06 01:25:30;;;;;;;16.90;10.70;;;2.00;94.00;;;;;;5017699;28;20192;-82
2021/01/06 01:27:59;;;;;;;16.13;10.50;;;2.00;94.00;;;;;;5023784;28;20278;-81
2021/01/06 01:30:28;;;;;;;18.37;10.50;;;2.00;94.00;;;;;;4996997;28;20191;-83
2021/01/06 01:32:56;;;;;;;16.63;10.73;;;2.00;94.00;;;;;;4990092;28;20199;-83
2021/01/06 01:35:27;;;;;;;16.60;10.50;;;2.00;93.90;;;;;;5017009;28;20497;-83
2021/01/06 01:37:56;;;;;;;20.17;11.30;;;2.00;94.00;;;;;;4990528;28;20227;-81
2021/01/06 01:40:25;;;;;;;17.33;11.47;;;2.00;93.90;;;;;;4985082;28;20227;-82
2021/01/06 01:42:56;;;;;;;16.67;11.23;;;2.00;93.90;;;;;;4959886;28;20231;-82
2021/01/06 01:45:27;;;;;;;17.43;11.03;;;2.00;93.90;;;;;;4991238;28;20200;-82
2021/01/06 01:48:02;;;;;;;16.77;11.23;;;2.00;93.90;;;;;;4981265;28;20211;-82
2021/01/06 01:50:32;;;;;;;16.13;10.50;;;2.00;93.90;;;;;;4977912;28;20214;-82
2021/01/06 01:53:06;;;;;;;15.60;10.77;;;2.00;93.90;;;;;;4964448;28;20218;-83
2021/01/06 01:55:36;;;;;;;16.87;10.70;;;2.00;93.90;;;;;;5004438;28;20210;-80
2021/01/06 01:58:12;;;;;;;15.70;11.10;;;2.00;93.90;;;;;;4980983;28;20232;-82
2021/01/06 02:00:41;;;;;;;20.53;12.23;;;2.10;93.90;;;;;;4996199;28;20245;-83
2021/01/06 02:03:16;;;;;;;17.70;11.73;;;2.00;93.90;;;;;;4953195;28;20223;-83
2021/01/06 02:05:50;;;;;;;18.63;12.40;;;2.00;93.90;;;;;;4990223;28;20199;-82
2021/01/06 02:08:24;;;;;;;16.17;11.37;;;2.00;93.90;;;;;;4993175;28;20230;-81
2021/01/06 02:10:57;;;;;;;14.70;10.43;;;2.20;94.00;;;;;;4997739;28;20715;-82
2021/01/06 02:13:30;;;;;;;16.40;11.33;;;2.10;94.00;;;;;;4978183;28;20529;-84
2021/01/06 02:16:07;;;;;;;17.93;11.63;;;2.00;93.90;;;;;;4980918;28;20200;-81
2021/01/06 02:18:35;;;;;;;17.63;12.13;;;2.00;93.90;;;;;;4998714;28;20216;-81
2021/01/06 02:21:10;;;;;;;18.67;11.97;;;2.10;94.00;;;;;;4987745;28;20475;-82
2021/01/06 02:23:38;;;;;;;19.27;12.23;;;2.00;94.00;;;;;;4990683;28;20202;-82
2021/01/06 02:26:06;;;;;;;17.10;11.77;;;2.10;94.00;;;;;;5022613;28;20203;-82
2021/01/06 02:28:34;;;;;;;18.30;12.37;;;2.10;94.00;;;;;;5012123;28;20202;-83
2021/01/06 02:31:03;;;;;;;18.00;11.93;;;2.10;94.00;;;;;;4985396;28;20220;-83
2021/01/06 02:33:31;;;;;;;19.23;12.10;;;2.10;94.00;;;;;;4978664;28;20257;-82
2021/01/06 02:35:59;;;;;;;17.27;12.07;;;2.10;94.00;;;;;;4988677;28;20290;-82
2021/01/06 02:38:29;;;;;;;20.20;12.93;;;2.10;94.00;;;;;;4983473;28;20765;-82
2021/01/06 02:40:57;;;;;;;20.33;12.03;;;2.10;94.00;;;;;;5002866;28;20275;-84
2021/01/06 02:43:26;;;;;;;19.00;13.27;;;2.10;94.00;;;;;;4964735;28;20224;-82
2021/01/06 02:45:55;;;;;;;19.47;12.67;;;2.10;94.00;;;;;;4998064;28;20207;-81
2021/01/06 02:48:24;;;;;;;20.43;13.53;;;2.10;94.00;;;;;;4999219;28;20211;-81
2021/01/06 02:50:57;;;;;;;20.23;12.67;;;2.10;94.00;;;;;;4990636;28;20206;-82
2021/01/06 02:53:30;;;;;;;18.73;13.03;;;2.10;94.00;;;;;;4976867;28;20234;-83
2021/01/06 02:55:59;;;;;;;20.10;13.40;;;2.10;94.00;;;;;;4992539;28;20578;-83
2021/01/06 02:58:28;;;;;;;24.13;15.20;;;2.20;94.00;;;;;;4984852;28;20228;-81
2021/01/06 03:00:56;;;;;;;22.47;14.90;;;2.10;94.00;;;;;;4998635;28;20192;-81
2021/01/06 03:03:29;;;;;;;21.03;13.33;;;2.20;94.00;;;;;;4953083;28;20682;-82
2021/01/06 03:06:06;;;;;;;21.90;14.07;;;2.20;94.00;;;;;;5001413;28;20740;-82
2021/01/06 03:08:36;;;;;;;24.27;14.83;;;2.10;94.00;;;;;;4968131;28;20200;-82
2021/01/06 03:11:07;;;;;;;25.73;14.23;;;2.10;94.00;;;;;;4986711;28;20192;-81
2021/01/06 03:13:35;;;;;;;22.93;14.60;;;2.10;94.00;;;;;;4984104;28;20222;-83
2021/01/06 03:16:03;;;;;;;22.77;13.73;;;2.20;94.00;;;;;;4992888;28;20212;-83
2021/01/06 03:18:31;;;;;;;23.63;14.60;;;2.10;94.00;;;;;;4997856;28;20247;-82
2021/01/06 03:21:02;;;;;;;26.10;14.77;;;2.10;94.00;;;;;;4992395;28;20200;-82
2021/01/06 03:23:33;;;;;;;25.77;15.13;;;2.10;94.00;;;;;;4962010;28;20572;-83
2021/01/06 03:26:05;;;;;;;26.47;15.83;;;2.10;94.00;;;;;;4995627;28;20191;-80
2021/01/06 03:28:35;;;;;;;25.07;15.50;;;2.10;94.00;;;;;;4978265;28;20415;-83
2021/01/06 03:31:08;;;;;;;30.50;16.53;;;2.10;94.00;;;;;;4977384;28;20603;-80
2021/01/06 03:33:42;;;;;;;25.33;16.30;;;2.10;94.00;;;;;;4978056;28;20224;-82
2021/01/06 03:36:16;;;;;;;29.40;16.80;;;2.20;94.00;;;;;;4998191;28;20199;-82
2021/01/06 03:38:48;;;;;;;26.40;15.83;;;2.20;94.00;;;;;;4993414;28;20226;-82
2021/01/06 03:41:18;;;;;;;28.57;16.27;;;2.10;94.00;;;;;;4974627;28;20226;-82
2021/01/06 03:43:49;;;;;;;26.33;15.17;;;2.30;94.00;;;;;;4975430;28;20785;-81
2021/01/06 03:46:21;;;;;;;29.27;17.13;;;2.10;94.00;;;;;;5003104;28;20207;-82
2021/01/06 03:48:58;;;;;;;26.30;16.03;;;2.20;94.00;;;;;;5021810;28;20192;-83
2021/01/06 03:51:33;;;;;;;32.77;16.73;;;2.20;94.00;;;;;;4995582;28;20305;-82
2021/01/06 03:54:11;;;;;;;28.60;16.80;;;2.20;94.00;;;;;;4992928;28;20280;-84
2021/01/06 03:56:42;;;;;;;27.30;16.90;;;2.20;94.00;;;;;;4994833;28;20479;-83
2021/01/06 03:59:15;;;;;;;29.13;16.87;;;2.20;94.00;;;;;;4990232;28;20196;-82
2021/01/06 04:01:53;;;;;;;29.00;17.20;;;2.20;94.00;;;;;;4985612;28;20222;-80
2021/01/06 04:04:27;;;;;;;29.97;17.60;;;2.30;94.00;;;;;;4993201;28;20215;-82
2021/01/06 04:06:56;;;;;;;32.40;17.33;;;2.20;94.00;;;;;;5001207;28;20267;-81
2021/01/06 04:09:32;;;;;;;28.77;17.67;;;2.30;94.00;;;;;;5006325;28;20221;-82
2021/01/06 04:12:08;;;;;;;29.60;16.67;;;2.30;94.00;;;;;;4973718;28;20226;-82
2021/01/06 04:14:36;;;;;;;30.27;17.03;;;2.30;94.00;;;;;;4992970;28;20226;-83
2021/01/06 04:17:15;;;;;;;31.77;18.10;;;2.30;94.00;;;;;;5003702;28;20224;-83
2021/01/06 04:19:46;;;;;;;27.93;16.67;;;2.30;94.00;;;;;;4989056;28;20327;-82
2021/01/06 04:22:14;;;;;;;30.73;17.97;;;2.30;94.00;;;;;;4994399;28;20191;-81
2021/01/06 04:24:42;;;;;;;30.13;18.50;;;2.30;94.00;;;;;;5007807;28;20269;-82
2021/01/06 04:27:16;;;;;;;29.90;18.07;;;2.30;94.00;;;;;;5012350;28;20215;-83
2021/01/06 04:29:43;;;;;;;31.50;17.90;;;2.50;94.10;;;;;;5017185;28;20213;-81
2021/01/06 04:32:11;;;;;;;31.43;17.10;;;2.30;94.00;;;;;;4994135;28;20207;-80
2021/01/06 04:34:38;;;;;;;29.93;17.70;;;2.40;94.00;;;;;;4999000;28;20183;-82
2021/01/06 04:37:05;;;;;;;28.37;16.57;;;2.30;94.00;;;;;;5018681;28;20224;-82
2021/01/06 04:39:33;;;;;;;29.47;17.40;;;2.40;94.00;;;;;;5006031;28;20531;-82
2021/01/06 04:42:04;;;;;;;30.07;18.00;;;2.20;94.00;;;;;;4994376;28;20745;-83
2021/01/06 04:44:49;;;;;;;33.17;18.20;;;2.40;94.00;;;;;;4979560;28;20188;-83
2021/01/06 04:47:37;;;;;;;35.30;18.67;;;2.30;94.00;;;;;;5000809;28;20207;-81
2021/01/06 04:50:30;;;;;;;38.33;19.90;;;2.40;94.10;;;;;;4995627;28;20717;-82
2021/01/06 04:53:07;;;;;;;43.00;21.43;;;2.40;94.10;;;;;;4963352;28;20703;-84
2021/01/06 04:55:47;;;;;;;36.30;18.97;;;2.40;94.10;;;;;;4998937;28;20284;-82
2021/01/06 04:58:26;;;;;;;36.93;20.43;;;2.40;94.10;;;;;;4994686;28;20231;-82
2021/01/06 05:01:05;;;;;;;37.93;21.03;;;2.40;94.10;;;;;;5000857;28;20515;-80
2021/01/06 05:03:55;;;;;;;36.87;19.70;;;2.40;94.10;;;;;;4970141;28;20225;-81
2021/01/06 05:06:39;;;;;;;37.57;19.73;;;2.40;94.10;;;;;;4979684;28;20200;-82
2021/01/06 05:09:15;;;;;;;38.23;20.03;;;2.40;94.10;;;;;;4976169;28;20432;-80
2021/01/06 05:12:01;;;;;;;35.53;19.97;;;2.40;94.10;;;;;;4980966;28;20200;-83
2021/01/06 05:14:35;;;;;;;37.20;19.70;;;2.40;94.10;;;;;;4986112;28;20199;-84
2021/01/06 05:17:13;;;;;;;39.20;20.43;;;2.40;94.10;;;;;;5005863;28;20228;-82
2021/01/06 05:19:45;;;;;;;36.70;20.43;;;2.40;94.10;;;;;;5011443;28;20210;-81
2021/01/06 05:22:13;;;;;;;39.77;19.83;;;2.40;94.10;;;;;;4988649;28;20214;-82
2021/01/06 05:24:45;;;;;;;40.33;20.87;;;2.40;94.10;;;;;;4979596;28;20211;-81
2021/01/06 05:27:23;;;;;;;36.27;19.83;;;2.50;94.10;;;;;;5000673;28;20743;-80
2021/01/06 05:29:52;;;;;;;38.53;20.30;;;2.40;94.10;;;;;;4984353;28;20213;-82
2021/01/06 05:32:31;;;;;;;38.93;20.57;;;2.40;94.10;;;;;;4982758;28;20230;-82
2021/01/06 05:35:01;;;;;;;35.37;21.40;;;2.50;94.10;;;;;;5015089;28;20333;-81
2021/01/06 05:37:29;;;;;;;34.83;19.87;;;2.50;94.10;;;;;;4987025;28;20250;-83
2021/01/06 05:40:04;;;;;;;36.97;20.03;;;2.40;94.10;;;;;;4980339;28;20624;-83
2021/01/06 05:42:35;;;;;;;34.60;19.83;;;2.40;94.10;;;;;;4953714;28;20218;-81
2021/01/06 05:45:07;;;;;;;34.83;19.50;;;2.50;94.10;;;;;;4982626;28;20985;-80
2021/01/06 05:47:41;;;;;;;37.30;20.17;;;2.40;94.10;;;;;;4987593;28;20195;-82
2021/01/06 05:50:15;;;;;;;36.90;20.03;;;2.40;94.10;;;;;;4994390;28;20623;-81
2021/01/06 05:52:45;;;;;;;33.37;19.60;;;2.40;94.10;;;;;;4973173;28;20202;-82
2021/01/06 05:55:18;;;;;;;37.43;21.07;;;2.40;94.10;;;;;;4987269;28;20304;-81
2021/01/06 05:57:50;;;;;;;36.07;20.53;;;2.40;94.10;;;;;;4989376;28;20248;-82
2021/01/06 06:00:31;;;;;;;36.20;19.60;;;2.50;94.10;;;;;;4992955;28;20654;-81
2021/01/06 06:03:16;;;;;;;34.83;20.07;;;2.40;94.10;;;;;;4961372;28;20515;-81
2021/01/06 06:05:57;;;;;;;36.50;20.07;;;2.40;94.10;;;;;;5009183;28;20240;-83
2021/01/06 06:08:45;;;;;;;36.53;19.57;;;2.40;94.10;;;;;;5003345;28;20199;-82
2021/01/06 06:11:37;;;;;;;33.40;19.03;;;2.40;94.10;;;;;;4983356;28;20201;-79
2021/01/06 06:14:27;;;;;;;30.80;18.13;;;2.40;94.10;;;;;;4979943;28;20707;-81
2021/01/06 06:17:00;;;;;;;31.10;17.20;;;2.40;94.10;;;;;;4968292;28;20299;-82
2021/01/06 06:19:56;;;;;;;30.73;17.70;;;2.40;94.10;;;;;;5007211;28;20199;-80
2021/01/06 06:22:28;;;;;;;31.50;18.33;;;2.30;94.00;;;;;;4966836;28;20214;-80
2021/01/06 06:25:01;;;;;;;32.10;17.73;;;2.40;94.00;;;;;;4990516;28;20188;-82
2021/01/06 06:27:48;;;;;;;33.07;17.77;;;2.40;94.00;;;;;;4999096;28;20325;-80
2021/01/06 06:30:26;;;;;;;29.73;16.57;;;2.40;94.00;;;;;;4989216;28;20239;-83
2021/01/06 06:32:54;;;;;;;30.20;17.63;;;2.40;94.00;;;;;;4964093;28;20711;-81
2021/01/06 06:35:28;;;;;;;29.17;18.03;;;2.40;94.00;;;;;;5009501;28;20458;-81
2021/01/06 06:37:58;;;;;;;29.07;16.13;;;2.40;94.00;;;;;;4985260;28;20227;-81
2021/01/06 06:40:27;;;;;;;29.50;17.20;;;2.30;94.00;;;;;;5002279;28;20200;-81
2021/01/06 06:42:58;;;;;;;28.03;17.03;;;2.40;94.00;;;;;;4964415;28;20222;-81
2021/01/06 06:45:45;;;;;;;30.73;17.37;;;2.50;94.00;;;;;;5016190;28;20204;-82
2021/01/06 06:48:28;;;;;;;32.00;17.40;;;2.50;94.00;;;;;;5018202;28;20279;-82
2021/01/06 06:51:04;;;;;;;28.93;17.20;;;2.40;93.90;;;;;;4991391;28;20211;-82
2021/01/06 06:53:39;;;;;;;28.17;16.27;;;2.40;93.90;;;;;;4971013;28;20223;-81
2021/01/06 06:56:21;;;;;;;32.53;16.87;;;2.50;93.90;;;;;;4988661;28;20929;-81
2021/01/06 06:58:54;;;;;;;28.10;16.47;;;2.40;93.90;;;;;;4996548;28;20234;-81
2021/01/06 07:01:27;;;;;;;26.87;15.67;;;2.50;93.90;;;;;;4987477;28;21266;-81
2021/01/06 07:04:01;;;;;;;29.20;16.27;;;2.50;93.90;;;;;;4979161;28;20223;-82
2021/01/06 07:06:31;;;;;;;26.80;16.43;;;2.50;93.90;;;;;;4984771;28;20605;-82
2021/01/06 07:09:01;;;;;;;27.03;16.03;;;2.50;93.90;;;;;;4986568;28;20205;-83
2021/01/06 07:11:36;;;;;;;27.07;16.83;;;2.50;93.80;;;;;;4977018;28;20442;-82
2021/01/06 07:14:14;;;;;;;25.57;15.77;;;2.50;93.80;;;;;;4977048;28;20724;-82
2021/01/06 07:17:00;;;;;;;27.97;17.27;;;2.50;93.80;;;;;;4996841;28;20218;-79
2021/01/06 07:19:30;;;;;;;30.63;18.00;;;2.50;93.80;;;;;;5010869;28;20315;-83
2021/01/06 07:22:09;;;;;;;28.27;16.83;;;2.50;93.80;;;;;;4972789;28;20645;-80
2021/01/06 07:24:37;;;;;;;27.57;16.97;;;2.50;93.70;;;;;;5005183;28;20224;-82
2021/01/06 07:27:07;;;;;;;29.23;16.97;;;2.60;93.70;;;;;;5005797;28;20646;-83
2021/01/06 07:29:45;;;;;;;30.47;17.10;;;2.50;93.60;;;;;;4992075;28;20201;-82
2021/01/06 07:32:14;;;;;;;29.60;16.63;;;2.50;93.60;;;;;;4978319;28;20223;-82
2021/01/06 07:34:48;;;;;;;28.87;17.20;;;2.60;93.70;;;;;;4987448;28;20284;-82
2021/01/06 07:37:33;;;;;;;30.03;17.30;;;2.60;93.70;;;;;;4988917;28;20204;-82
2021/01/06 07:40:08;;;;;;;30.57;17.07;;;2.70;93.70;;;;;;4981317;28;20243;-81
2021/01/06 07:42:40;;;;;;;27.53;16.33;;;2.60;93.60;;;;;;4952797;28;20447;-82
2021/01/06 07:45:32;;;;;;;29.67;17.33;;;2.80;93.60;;;;;;4992847;28;20671;-81
2021/01/06 07:48:29;;;;;;;31.27;18.03;;;2.70;93.50;;;;;;4986310;28;20255;-81
2021/01/06 07:51:05;;;;;;;30.83;17.63;;;2.70;93.50;;;;;;4987786;28;20472;-80
2021/01/06 07:53:41;;;;;;;32.37;19.23;;;2.80;93.60;;;;;;4961543;28;20457;-82
2021/01/06 07:56:22;;;;;;;32.53;18.07;;;2.70;93.50;;;;;;4986945;28;20372;-81
2021/01/06 07:58:55;;;;;;;32.63;18.90;;;2.70;93.50;;;;;;4996864;28;20228;-81
2021/01/06 08:01:34;;;;;;;29.60;17.43;;;2.70;93.50;;;;;;4972759;28;20912;-82
2021/01/06 08:04:09;;;;;;;31.13;17.33;;;2.70;93.50;;;;;;4983303;28;20202;-81
2021/01/06 08:06:44;;;;;;;28.50;17.10;;;2.70;93.50;;;;;;4998239;28;20201;-81
2021/01/06 08:09:34;;;;;;;29.70;17.77;;;2.70;93.50;;;;;;5008141;28;20212;-81
2021/01/06 08:12:11;;;;;;;27.50;16.43;;;2.70;93.50;;;;;;4992413;28;20273;-81
2021/01/06 08:14:40;;;;;;;31.73;17.77;;;2.70;93.50;;;;;;5003759;28;20230;-81
2021/01/06 08:17:19;;;;;;;26.40;16.50;;;2.70;93.50;;;;;;5003503;28;20201;-81
2021/01/06 08:19:58;;;;;;;29.30;17.37;;;2.80;93.50;;;;;;4992566;28;20241;-83
2021/01/06 08:22:34;;;;;;;26.43;15.73;;;2.80;93.40;;;;;;4972887;28;20467;-79
2021/01/06 08:25:16;;;;;;;30.10;16.77;;;2.80;93.40;;;;;;4999089;28;20832;-81
2021/01/06 08:27:45;;;;;;;28.20;16.73;;;2.80;93.40;;;;;;5005489;28;20426;-82
2021/01/06 08:30:25;;;;;;;28.63;16.70;;;2.80;93.40;;;;;;5008710;28;20201;-81
2021/01/06 08:33:05;;;;;;;31.57;17.27;;;2.80;93.40;;;;;;4961379;28;20205;-82
2021/01/06 08:35:37;;;;;;;29.13;17.37;;;2.80;93.40;;;;;;4959626;28;20221;-83
2021/01/06 08:38:29;;;;;;;29.87;17.03;;;2.80;93.30;;;;;;4966728;28;20692;-81
2021/01/06 08:41:16;;;;;;;30.47;16.63;;;3.00;93.50;;;;;;4964377;28;20307;-81
2021/01/06 08:43:43;;;;;;;28.60;17.60;;;3.00;93.50;;;;;;4967508;28;20684;-84
2021/01/06 08:46:20;;;;;;;30.10;16.80;;;3.00;93.30;;;;;;4951621;28;20290;-80
2021/01/06 08:48:47;;;;;;;27.63;17.10;;;3.00;93.20;;;;;;4968007;28;20595;-81
2021/01/06 08:51:29;;;;;;;28.30;16.40;;;3.10;93.20;;;;;;4937254;28;21287;-81
2021/01/06 08:54:28;;;;;;;27.77;15.63;;;3.10;93.10;;;;;;4952126;28;20226;-83
2021/01/06 08:57:06;;;;;;;29.53;16.23;;;3.10;93.10;;;;;;4964012;28;21408;-80
2021/01/06 08:59:37;;;;;;;25.60;16.03;;;3.10;93.10;;;;;;4979411;28;20683;-83
2021/01/06 09:02:16;;;;;;;26.60;15.97;;;3.10;93.00;;;;;;4971814;28;20637;-81
2021/01/06 09:04:46;;;;;;;26.63;16.67;;;3.10;92.90;;;;;;4979474;28;20229;-83
2021/01/06 09:07:21;;;;;;;24.20;15.63;;;3.10;92.90;;;;;;4994391;28;20229;-82
2021/01/06 09:10:19;;;;;;;27.43;16.30;;;3.20;92.90;;;;;;4991912;28;20232;-82
2021/01/06 09:12:56;;;;;;;28.63;16.83;;;3.10;92.80;;;;;;4947645;28;20309;-81
2021/01/06 09:15:31;;;;;;;25.37;16.17;;;3.20;92.80;;;;;;5008505;28;20295;-82
2021/01/06 09:18:09;;;;;;;27.20;16.53;;;3.00;92.60;;;;;;4983223;28;20414;-80
2021/01/06 09:20:49;;;;;;;28.83;16.47;;;3.20;92.70;;;;;;4980499;28;20420;-79
2021/01/06 09:23:20;;;;;;;27.63;17.17;;;3.10;92.70;;;;;;4955024;28;20226;-82
2021/01/06 09:25:47;;;;;;;29.33;15.53;;;3.30;92.70;;;;;;4983532;28;20290;-81
2021/01/06 09:28:17;;;;;;;24.93;16.30;;;3.20;92.50;;;;;;4991920;28;20217;-82
2021/01/06 09:30:47;;;;;;;28.13;16.40;;;3.30;92.50;;;;;;4987791;28;20210;-79
2021/01/06 09:33:21;;;;;;;26.63;15.47;;;3.30;92.50;;;;;;4954132;28;20220;-82
2021/01/06 09:35:49;;;;;;;24.13;14.63;;;3.30;92.50;;;;;;5013261;28;20206;-82
2021/01/06 09:38:24;;;;;;;27.63;16.53;;;3.30;92.30;;;;;;5019498;28;20218;-82
2021/01/06 09:40:56;;;;;;;24.37;15.83;;;3.30;92.20;;;;;;5010523;28;20178;-80
2021/01/06 09:43:34;;;;;;;21.27;15.03;;;3.30;92.10;;;;;;4969837;28;20235;-82
2021/01/06 09:46:15;;;;;;;24.10;15.43;;;3.30;92.30;;;;;;5001003;28;20202;-81
2021/01/06 09:48:47;;;;;;;62.60;37.10;;;3.30;92.10;;;;;;4993230;28;20774;-81
2021/01/06 09:51:18;;;;;;;25.77;16.80;;;3.40;92.10;;;;;;5003581;28;20194;-82
2021/01/06 09:53:50;;;;;;;27.33;16.07;;;3.30;92.10;;;;;;5004533;28;20215;-81
2021/01/06 09:56:23;;;;;;;23.80;15.20;;;3.40;92.10;;;;;;5023789;28;20192;-82
2021/01/06 09:58:53;;;;;;;25.33;15.83;;;3.40;92.10;;;;;;4991042;28;20226;-82
2021/01/06 10:01:31;;;;;;;25.83;15.47;;;3.40;92.00;;;;;;4998658;28;20822;-83
2021/01/06 10:04:03;;;;;;;23.53;15.30;;;3.40;92.10;;;;;;4996332;28;20284;-81
2021/01/06 10:06:46;;;;;;;26.97;15.83;;;3.50;92.00;;;;;;5009284;28;20191;-82
2021/01/06 10:09:23;;;;;;;27.43;14.87;;;3.40;91.70;;;;;;5003564;28;20526;-82
2021/01/06 10:12:25;;;;;;;24.20;15.30;;;3.50;91.80;;;;;;4972713;28;20222;-81
2021/01/06 10:15:21;;;;;;;23.53;14.33;;;3.60;91.80;;;;;;4992153;28;20220;-81
2021/01/06 10:17:58;;;;;;;23.37;14.97;;;3.60;91.70;;;;;;4998400;28;20243;-81
2021/01/06 10:20:33;;;;;;;24.90;15.33;;;3.70;91.60;;;;;;5000950;28;20291;-83
2021/01/06 10:23:13;;;;;;;24.87;15.63;;;3.70;91.40;;;;;;4965808;28;20223;-85
2021/01/06 10:25:44;;;;;;;26.07;15.93;;;3.80;91.60;;;;;;5001445;28;20205;-82
2021/01/06 10:28:30;;;;;;;25.83;15.03;;;3.80;91.70;;;;;;4994539;28;20681;-81
2021/01/06 10:31:09;;;;;;;26.03;14.90;;;3.80;91.40;;;;;;4989980;28;20221;-82
2021/01/06 10:34:02;;;;;;;24.57;14.83;;;3.80;91.60;;;;;;4976164;28;21672;-81
2021/01/06 10:36:54;;;;;;;23.50;14.23;;;3.70;91.50;;;;;;4989545;28;20203;-82
2021/01/06 10:39:26;;;;;;;24.43;14.60;;;3.70;91.50;;;;;;4997881;28;20703;-82
2021/01/06 10:42:03;;;;;;;24.33;14.80;;;3.90;91.60;;;;;;4971215;28;20223;-82
2021/01/06 10:44:34;;;;;;;22.63;14.23;;;3.70;91.40;;;;;;4986388;28;20309;-82
2021/01/06 10:47:39;;;;;;;22.87;14.73;;;3.60;91.20;;;;;;5004899;28;20813;-84
2021/01/06 10:50:45;;;;;;;22.13;14.97;;;3.60;91.40;;;;;;4992955;28;20212;-82
2021/01/06 10:53:24;;;;;;;24.00;14.83;;;3.70;91.50;;;;;;4967428;28;20227;-82
2021/01/06 10:55:59;;;;;;;26.30;15.70;;;3.60;91.30;;;;;;4991349;28;20434;-83
2021/01/06 10:58:42;;;;;;;24.13;15.37;;;3.70;91.30;;;;;;4983814;28;20547;-82
2021/01/06 11:01:48;;;;;;;23.07;15.10;;;3.60;91.50;;;;;;4981804;28;20200;-84
2021/01/06 11:04:43;;;;;;;23.93;14.70;;;3.60;91.50;;;;;;5001924;23;20235;-83
2021/01/06 11:07:25;;;;;;;22.53;13.90;;;3.70;91.50;;;;;;4973950;28;20304;-82
2021/01/06 11:10:28;;;;;;;22.60;14.33;;;3.70;91.50;;;;;;4968245;28;20231;-83
2021/01/06 11:13:22;;;;;;;23.10;14.57;;;3.70;91.50;;;;;;4923928;28;20680;-81
2021/01/06 11:15:55;;;;;;;23.77;14.83;;;3.70;91.60;;;;;;4961669;28;20208;-84
2021/01/06 11:18:39;;;;;;;22.33;14.07;;;3.70;91.60;;;;;;4956350;28;20238;-82
2021/01/06 11:21:17;;;;;;;22.43;13.57;;;3.70;91.70;;;;;;4948896;28;20210;-83
2021/01/06 11:23:52;;;;;;;22.60;14.23;;;3.70;91.60;;;;;;4939064;28;20223;-83
2021/01/06 11:26:52;;;;;;;22.87;14.43;;;3.70;91.70;;;;;;4954368;28;20212;-84
2021/01/06 11:29:49;;;;;;;22.20;14.23;;;3.80;91.70;;;;;;4961222;28;20216;-81
2021/01/06 11:32:37;;;;;;;23.30;14.13;;;3.80;91.60;;;;;;4931813;28;20232;-83
2021/01/06 11:35:23;;;;;;;21.20;13.47;;;4.00;91.60;;;;;;4950126;28;20208;-82
2021/01/06 11:37:54;;;;;;;21.77;14.37;;;3.80;91.40;;;;;;4958588;28;20201;-82
2021/01/06 11:41:02;;;;;;;20.70;12.93;;;3.70;91.50;;;;;;4930123;28;20831;-81
2021/01/06 11:43:38;;;;;;;23.43;14.53;;;3.70;91.70;;;;;;4940846;28;20243;-81
2021/01/06 11:46:29;;;;;;;23.23;15.23;;;3.70;91.70;;;;;;4949109;28;20210;-81
2021/01/06 11:49:21;;;;;;;21.47;14.20;;;3.60;91.80;;;;;;4943110;28;20682;-80
2021/01/06 11:52:28;;;;;;;23.23;13.90;;;3.60;91.80;;;;;;4917493;28;20232;-82
2021/01/06 11:55:10;;;;;;;19.13;13.53;;;3.60;91.80;;;;;;4942152;28;20216;-81
2021/01/06 11:57:46;;;;;;;21.40;13.70;;;3.60;91.70;;;;;;4961094;28;20679;-83
2021/01/06 12:00:38;;;;;;;21.10;13.23;;;3.60;91.80;;;;;;4957380;28;20238;-82
2021/01/06 12:03:24;;;;;;;22.70;14.30;;;3.70;91.90;;;;;;4931566;28;20227;-83
2021/01/06 12:06:06;;;;;;;20.87;14.10;;;3.70;91.90;;;;;;4953650;28;20291;-82
2021/01/06 12:09:05;;;;;;;22.80;13.63;;;3.70;91.70;;;;;;4953963;28;20195;-83
2021/01/06 12:11:38;;;;;;;20.60;12.73;;;3.70;91.70;;;;;;4947023;28;20658;-82
2021/01/06 12:14:22;;;;;;;20.37;13.63;;;3.70;91.60;;;;;;4947579;28;20904;-84
2021/01/06 12:16:55;;;;;;;21.67;14.03;;;3.80;91.60;;;;;;4929198;28;20352;-82
2021/01/06 12:19:36;;;;;;;22.30;14.20;;;3.80;91.70;;;;;;4939935;28;20240;-82
2021/01/06 12:22:16;;;;;;;23.40;14.93;;;3.80;91.60;;;;;;4937998;28;20427;-83
2021/01/06 12:24:57;;;;;;;19.33;13.73;;;3.80;91.70;;;;;;4942812;28;20225;-83
2021/01/06 12:27:44;;;;;;;21.97;14.97;;;3.80;91.60;;;;;;4953445;28;20716;-83
2021/01/06 12:30:40;;;;;;;22.63;14.27;;;3.80;91.50;;;;;;4972092;28;20214;-82
2021/01/06 12:33:31;;;;;;;21.93;13.60;;;3.70;91.70;;;;;;4943097;28;20234;-83
2021/01/06 12:36:17;;;;;;;21.87;13.90;;;3.70;91.80;;;;;;4958465;28;20675;-82
2021/01/06 12:38:46;;;;;;;22.80;14.60;;;3.70;91.90;;;;;;4941302;28;20246;-83
2021/01/06 12:41:19;;;;;;;21.73;14.13;;;3.70;91.90;;;;;;4946123;28;20331;-82
2021/01/06 12:44:05;;;;;;;20.90;14.00;;;3.60;92.00;;;;;;4932717;28;20238;-83
2021/01/06 12:46:40;;;;;;;24.23;14.70;;;3.50;92.10;;;;;;4956928;28;20686;-84
2021/01/06 12:49:37;;;;;;;22.30;14.80;;;3.50;92.20;;;;;;4952254;28;20534;-83
2021/01/06 12:52:40;;;;;;;23.47;13.87;;;3.50;92.00;;;;;;4942552;28;20651;-84
2021/01/06 12:55:15;;;;;;;21.90;14.20;;;3.40;92.00;;;;;;4923904;28;20226;-82
2021/01/06 12:57:47;;;;;;;22.20;14.37;;;3.40;92.10;;;;;;4955782;28;20210;-81
2021/01/06 13:00:36;;;;;;;23.23;14.17;;;3.30;92.30;;;;;;4963155;28;20570;-82
2021/01/06 13:03:22;;;;;;;24.70;14.97;;;3.40;92.30;;;;;;4921324;28;20646;-82
2021/01/06 13:05:54;;;;;;;25.07;14.60;;;3.40;92.30;;;;;;4963238;28;20307;-82
2021/01/06 13:08:32;;;;;;;24.67;15.37;;;3.40;92.30;;;;;;4952192;28;20701;-83
2021/01/06 13:11:18;;;;;;;23.67;14.70;;;3.30;92.20;;;;;;4955643;28;20232;-82
2021/01/06 13:13:47;;;;;;;24.97;15.70;;;3.50;92.40;;;;;;4943381;28;20232;-82
2021/01/06 13:16:30;;;;;;;22.50;15.00;;;3.30;92.30;;;;;;4952047;28;20211;-82
2021/01/06 13:19:18;;;;;;;24.43;15.37;;;3.40;92.40;;;;;;4955256;28;20269;-83
2021/01/06 13:22:14;;;;;;;21.40;14.13;;;3.40;92.50;;;;;;4933050;28;20224;-81
2021/01/06 13:24:45;;;;;;;26.23;15.43;;;3.40;92.40;;;;;;4927739;28;20704;-84